Scott R. Wilson — WDA5062 — position and weather

sailwx.info

Track history (hours):
 
Tides and Currents Weather Stations Pressure Air Temp Water Temp Dewpoint Dewpoint Depression Visibility Wind Speed Wind Dir Waves Ship Positions

Scott R. Wilson

Owner: BLESSY ENTERPRISES INC, HARAHAN, LA. More information available from US FCC via Universal Licensing System.

Last reported at 2017-Dec-04 10:31 UTC. Time now 2017-Dec-16 07:04 UTC.
Position N 29°34' W 090°35'.
Warning: this ship's position is 11 days out of date.

Length 23 m; draft 2.6 m.

Type: Tow > 200 m length. MMSI: 366816020.

Date/timePositionNaut miles runAvg speedWind from/ knotsBaromVisibWave heightAir tempDewpointWater temp
2017-Dec-04 10:31N 29°34' W 090°35'1 1.0
2017-Dec-04 09:59N 29°35' W 090°35'2 4.2
2017-Dec-04 09:30N 29°35' W 090°38'2 4.2
2017-Dec-04 09:00N 29°36' W 090°40'2 3.9
2017-Dec-04 08:30N 29°37' W 090°42'2 3.3
2017-Dec-04 08:01N 29°35' W 090°43'2 3.3
2017-Dec-04 07:31N 29°34' W 090°44'2 3.4
2017-Dec-04 07:00N 29°33' W 090°45'1 1.1
2017-Dec-04 06:30N 29°33' W 090°46'0 0.0
2017-Dec-04 06:00N 29°33' W 090°46'2 3.1
2017-Dec-04 05:30N 29°32' W 090°47'2 4.8
2017-Dec-04 05:01N 29°32' W 090°50'62 2.3
2017-Dec-03 01:41N 29°50' W 091°58'1 4.6
2017-Dec-03 01:30N 29°50' W 091°59'2 4.2
2017-Dec-03 01:00N 29°49' W 092°01'2 4.5
2017-Dec-03 00:30N 29°49' W 092°04'2 4.8
2017-Dec-03 00:00N 29°48' W 092°06'2 5.0
2017-Dec-02 23:30N 29°47' W 092°09'2 3.5
2017-Dec-02 23:00N 29°47' W 092°11'0 0.1
2017-Dec-02 22:30N 29°47' W 092°11'0 0.0
2017-Dec-02 22:00N 29°47' W 092°11'0 0.0
2017-Dec-02 21:31N 29°47' W 092°11'0 0.1
2017-Dec-02 21:00N 29°47' W 092°11'2 3.3
2017-Dec-02 20:30N 29°47' W 092°13'2 3.6
2017-Dec-02 20:00N 29°48' W 092°15'2 4.4
2017-Dec-02 19:30N 29°49' W 092°17'2 4.2
2017-Dec-02 19:01N 29°50' W 092°19'2 4.3
2017-Dec-02 18:30N 29°51' W 092°21'40 4.0
2017-Dec-02 08:20N 29°56' W 093°07'2 3.6
2017-Dec-02 07:52N 29°56' W 093°09'1 3.8
2017-Dec-02 07:30N 29°57' W 093°10'2 4.3
2017-Dec-02 07:00N 29°59' W 093°12'2 3.8
2017-Dec-02 06:30N 30°00' W 093°13'2 3.4
2017-Dec-02 06:00N 30°02' W 093°14'1 1.3
2017-Dec-02 05:30N 30°02' W 093°15'2 3.2
2017-Dec-02 05:00N 30°03' W 093°16'2 3.5
2017-Dec-02 04:30N 30°05' W 093°17'1 2.3
2017-Dec-02 04:00N 30°06' W 093°18'1 1.4
2017-Dec-02 03:31N 30°06' W 093°18'0 0.0
2017-Dec-02 03:00N 30°06' W 093°18'0 0.2
2017-Dec-02 02:30N 30°06' W 093°18'2 4.0
2017-Dec-02 02:00N 30°05' W 093°20'2 3.6
2017-Dec-02 01:30N 30°04' W 093°22'2 3.8
2017-Dec-02 01:00N 30°04' W 093°24'2 4.5
2017-Dec-02 00:30N 30°04' W 093°26'2 4.6
2017-Dec-02 00:00N 30°04' W 093°29'2 4.6
2017-Dec-01 23:30N 30°04' W 093°32'78 4.0
2017-Dec-01 04:00N 29°32' W 094°54'3 6.6
2017-Dec-01 03:30N 29°34' W 094°56'3 6.5
2017-Dec-01 03:01N 29°37' W 094°58'3 6.7
2017-Dec-01 02:31N 29°40' W 094°59'3 6.0
2017-Dec-01 01:59N 29°43' W 095°01'4 0.3
2017-Nov-30 11:17N 29°45' W 095°06'0 0.0
2017-Nov-30 09:20N 29°45' W 095°06'0 0.0
2017-Nov-30 08:59N 29°45' W 095°06'0 0.0
2017-Nov-30 08:30N 29°45' W 095°06'0 0.0
2017-Nov-30 08:00N 29°45' W 095°06'0 0.0
2017-Nov-30 06:57N 29°45' W 095°06'0 0.0
2017-Nov-30 06:28N 29°45' W 095°06'0 0.0
2017-Nov-30 02:32N 29°45' W 095°06'0 0.8
2017-Nov-30 02:29N 29°45' W 095°06'2 0.1
2017-Nov-28 19:26N 29°44' W 095°03'4 0.1
2017-Nov-27 10:03N 29°47' W 095°05'0 0.1
2017-Nov-27 09:59N 29°47' W 095°05'0 0.0
2017-Nov-27 09:21N 29°47' W 095°05'0 0.0
2017-Nov-27 08:09N 29°47' W 095°05'0 0.0
2017-Nov-27 07:59N 29°47' W 095°05'0 0.0
2017-Nov-27 07:15N 29°47' W 095°05'0 0.0
2017-Nov-27 04:57N 29°47' W 095°05'0 0.0
2017-Nov-27 04:28N 29°47' W 095°05'0 0.0
2017-Nov-27 03:50N 29°47' W 095°05'0 0.0
2017-Nov-27 03:30N 29°47' W 095°05'0 0.0
2017-Nov-27 02:57N 29°47' W 095°05'0 0.0
2017-Nov-27 02:30N 29°47' W 095°05'0 0.0
2017-Nov-27 01:59N 29°47' W 095°05'0 0.0
2017-Nov-26 07:28N 29°47' W 095°05'0 0.0
2017-Nov-26 06:56N 29°47' W 095°05'0 0.0
2017-Nov-26 06:26N 29°47' W 095°05'0 0.0
2017-Nov-26 05:53N 29°47' W 095°05'0 0.0
2017-Nov-26 05:28N 29°47' W 095°05'0 0.0
2017-Nov-26 05:00N 29°47' W 095°05'0 0.0
2017-Nov-26 04:29N 29°47' W 095°05'0 0.0
2017-Nov-26 04:01N 29°47' W 095°05'0 0.0
2017-Nov-26 02:57N 29°47' W 095°05'0 0.0
2017-Nov-26 02:30N 29°47' W 095°05'3 0.2
2017-Nov-25 12:40N 29°44' W 095°07'2 7.3
2017-Nov-25 12:26N 29°44' W 095°09'3 1.1
2017-Nov-25 09:42N 29°44' W 095°12'2 6.7
2017-Nov-25 09:29N 29°45' W 095°10'3 6.5
2017-Nov-25 08:59N 29°44' W 095°07'2 0.5
2017-Nov-25 04:22N 29°46' W 095°05'2 5.7
2017-Nov-25 03:59N 29°44' W 095°07'3 5.2
2017-Nov-25 03:30N 29°45' W 095°10'2 2.0
2017-Nov-25 02:17N 29°44' W 095°12'0 0.4
2017-Nov-25 01:42N 29°44' W 095°12'0 0.0
2017-Nov-25 01:08N 29°44' W 095°12'0 0.0
2017-Nov-25 00:53N 29°44' W 095°12'0 0.0
2017-Nov-25 00:28N 29°44' W 095°12'0 0.0
2017-Nov-24 23:23N 29°44' W 095°12'0 0.0
2017-Nov-24 23:00N 29°44' W 095°12'0 0.0
2017-Nov-24 22:30N 29°44' W 095°12'0 0.0
2017-Nov-24 21:58N 29°44' W 095°12'0 0.0
2017-Nov-24 21:30N 29°44' W 095°12'0 0.0
2017-Nov-24 20:57N 29°44' W 095°12'0 0.0
2017-Nov-24 20:13N 29°44' W 095°12'0 0.0
2017-Nov-24 19:59N 29°44' W 095°12'0 0.0
2017-Nov-24 19:25N 29°44' W 095°12'0 0.0
2017-Nov-24 18:58N 29°44' W 095°12'0 0.0
2017-Nov-24 18:30N 29°44' W 095°12'0 0.0
2017-Nov-24 17:23N 29°44' W 095°12'0 0.0
2017-Nov-24 12:22N 29°44' W 095°12'0 0.0
2017-Nov-24 10:57N 29°44' W 095°12'  
Track history (hours):
 
Tides and Currents Weather Stations Pressure Air Temp Water Temp Dewpoint Dewpoint Depression Visibility Wind Speed Wind Dir Waves Ship Positions

Scott R. Wilson

Owner: BLESSY ENTERPRISES INC, HARAHAN, LA. More information available from US FCC via Universal Licensing System.

Last reported at 2017-Dec-04 10:31 UTC. Time now 2017-Dec-16 07:04 UTC.
Position N 29°34' W 090°35'.
Warning: this ship's position is 11 days out of date.

Length 23 m; draft 2.6 m.

Type: Tow > 200 m length. MMSI: 366816020.

Date/timePositionNaut miles runAvg speedWind from/ knotsBaromVisibWave heightAir tempDewpointWater temp
2017-Dec-04 10:31N 29°34' W 090°35'1 1.0
2017-Dec-04 09:59N 29°35' W 090°35'2 4.2
2017-Dec-04 09:30N 29°35' W 090°38'2 4.2
2017-Dec-04 09:00N 29°36' W 090°40'2 3.9
2017-Dec-04 08:30N 29°37' W 090°42'2 3.3
2017-Dec-04 08:01N 29°35' W 090°43'2 3.3
2017-Dec-04 07:31N 29°34' W 090°44'2 3.4
2017-Dec-04 07:00N 29°33' W 090°45'1 1.1
2017-Dec-04 06:30N 29°33' W 090°46'0 0.0
2017-Dec-04 06:00N 29°33' W 090°46'2 3.1
2017-Dec-04 05:30N 29°32' W 090°47'2 4.8
2017-Dec-04 05:01N 29°32' W 090°50'62 2.3
2017-Dec-03 01:41N 29°50' W 091°58'1 4.6
2017-Dec-03 01:30N 29°50' W 091°59'2 4.2
2017-Dec-03 01:00N 29°49' W 092°01'2 4.5
2017-Dec-03 00:30N 29°49' W 092°04'2 4.8
2017-Dec-03 00:00N 29°48' W 092°06'2 5.0
2017-Dec-02 23:30N 29°47' W 092°09'2 3.5
2017-Dec-02 23:00N 29°47' W 092°11'0 0.1
2017-Dec-02 22:30N 29°47' W 092°11'0 0.0
2017-Dec-02 22:00N 29°47' W 092°11'0 0.0
2017-Dec-02 21:31N 29°47' W 092°11'0 0.1
2017-Dec-02 21:00N 29°47' W 092°11'2 3.3
2017-Dec-02 20:30N 29°47' W 092°13'2 3.6
2017-Dec-02 20:00N 29°48' W 092°15'2 4.4
2017-Dec-02 19:30N 29°49' W 092°17'2 4.2
2017-Dec-02 19:01N 29°50' W 092°19'2 4.3
2017-Dec-02 18:30N 29°51' W 092°21'40 4.0
2017-Dec-02 08:20N 29°56' W 093°07'2 3.6
2017-Dec-02 07:52N 29°56' W 093°09'1 3.8
2017-Dec-02 07:30N 29°57' W 093°10'2 4.3
2017-Dec-02 07:00N 29°59' W 093°12'2 3.8
2017-Dec-02 06:30N 30°00' W 093°13'2 3.4
2017-Dec-02 06:00N 30°02' W 093°14'1 1.3
2017-Dec-02 05:30N 30°02' W 093°15'2 3.2
2017-Dec-02 05:00N 30°03' W 093°16'2 3.5
2017-Dec-02 04:30N 30°05' W 093°17'1 2.3
2017-Dec-02 04:00N 30°06' W 093°18'1 1.4
2017-Dec-02 03:31N 30°06' W 093°18'0 0.0
2017-Dec-02 03:00N 30°06' W 093°18'0 0.2
2017-Dec-02 02:30N 30°06' W 093°18'2 4.0
2017-Dec-02 02:00N 30°05' W 093°20'2 3.6
2017-Dec-02 01:30N 30°04' W 093°22'2 3.8
2017-Dec-02 01:00N 30°04' W 093°24'2 4.5
2017-Dec-02 00:30N 30°04' W 093°26'2 4.6
2017-Dec-02 00:00N 30°04' W 093°29'2 4.6
2017-Dec-01 23:30N 30°04' W 093°32'78 4.0
2017-Dec-01 04:00N 29°32' W 094°54'3 6.6
2017-Dec-01 03:30N 29°34' W 094°56'3 6.5
2017-Dec-01 03:01N 29°37' W 094°58'3 6.7
2017-Dec-01 02:31N 29°40' W 094°59'3 6.0
2017-Dec-01 01:59N 29°43' W 095°01'4 0.3
2017-Nov-30 11:17N 29°45' W 095°06'0 0.0
2017-Nov-30 09:20N 29°45' W 095°06'0 0.0
2017-Nov-30 08:59N 29°45' W 095°06'0 0.0
2017-Nov-30 08:30N 29°45' W 095°06'0 0.0
2017-Nov-30 08:00N 29°45' W 095°06'0 0.0
2017-Nov-30 06:57N 29°45' W 095°06'0 0.0
2017-Nov-30 06:28N 29°45' W 095°06'0 0.0
2017-Nov-30 02:32N 29°45' W 095°06'0 0.8
2017-Nov-30 02:29N 29°45' W 095°06'2 0.1
2017-Nov-28 19:26N 29°44' W 095°03'4 0.1
2017-Nov-27 10:03N 29°47' W 095°05'0 0.1
2017-Nov-27 09:59N 29°47' W 095°05'0 0.0
2017-Nov-27 09:21N 29°47' W 095°05'0 0.0
2017-Nov-27 08:09N 29°47' W 095°05'0 0.0
2017-Nov-27 07:59N 29°47' W 095°05'0 0.0
2017-Nov-27 07:15N 29°47' W 095°05'0 0.0
2017-Nov-27 04:57N 29°47' W 095°05'0 0.0
2017-Nov-27 04:28N 29°47' W 095°05'0 0.0
2017-Nov-27 03:50N 29°47' W 095°05'0 0.0
2017-Nov-27 03:30N 29°47' W 095°05'0 0.0
2017-Nov-27 02:57N 29°47' W 095°05'0 0.0
2017-Nov-27 02:30N 29°47' W 095°05'0 0.0
2017-Nov-27 01:59N 29°47' W 095°05'0 0.0
2017-Nov-26 07:28N 29°47' W 095°05'0 0.0
2017-Nov-26 06:56N 29°47' W 095°05'0 0.0
2017-Nov-26 06:26N 29°47' W 095°05'0 0.0
2017-Nov-26 05:53N 29°47' W 095°05'0 0.0
2017-Nov-26 05:28N 29°47' W 095°05'0 0.0
2017-Nov-26 05:00N 29°47' W 095°05'0 0.0
2017-Nov-26 04:29N 29°47' W 095°05'0 0.0
2017-Nov-26 04:01N 29°47' W 095°05'0 0.0
2017-Nov-26 02:57N 29°47' W 095°05'0 0.0
2017-Nov-26 02:30N 29°47' W 095°05'3 0.2
2017-Nov-25 12:40N 29°44' W 095°07'2 7.3
2017-Nov-25 12:26N 29°44' W 095°09'3 1.1
2017-Nov-25 09:42N 29°44' W 095°12'2 6.7
2017-Nov-25 09:29N 29°45' W 095°10'3 6.5
2017-Nov-25 08:59N 29°44' W 095°07'2 0.5
2017-Nov-25 04:22N 29°46' W 095°05'2 5.7
2017-Nov-25 03:59N 29°44' W 095°07'3 5.2
2017-Nov-25 03:30N 29°45' W 095°10'2 2.0
2017-Nov-25 02:17N 29°44' W 095°12'0 0.4
2017-Nov-25 01:42N 29°44' W 095°12'0 0.0
2017-Nov-25 01:08N 29°44' W 095°12'0 0.0
2017-Nov-25 00:53N 29°44' W 095°12'0 0.0
2017-Nov-25 00:28N 29°44' W 095°12'0 0.0
2017-Nov-24 23:23N 29°44' W 095°12'0 0.0
2017-Nov-24 23:00N 29°44' W 095°12'0 0.0
2017-Nov-24 22:30N 29°44' W 095°12'0 0.0
2017-Nov-24 21:58N 29°44' W 095°12'0 0.0
2017-Nov-24 21:30N 29°44' W 095°12'0 0.0
2017-Nov-24 20:57N 29°44' W 095°12'0 0.0
2017-Nov-24 20:13N 29°44' W 095°12'0 0.0
2017-Nov-24 19:59N 29°44' W 095°12'0 0.0
2017-Nov-24 19:25N 29°44' W 095°12'0 0.0
2017-Nov-24 18:58N 29°44' W 095°12'0 0.0
2017-Nov-24 18:30N 29°44' W 095°12'0 0.0
2017-Nov-24 17:23N 29°44' W 095°12'0 0.0
2017-Nov-24 12:22N 29°44' W 095°12'0 0.0
2017-Nov-24 10:57N 29°44' W 095°12'  

Dump ship's entire track history